Time;durP1;ratioP1;P1;durP2;ratioP2;P2;SDS_P1;SDS_P2;PMS_P1;PMS_P2;Temp;Humidity;BMP_temperature;BMP_pressure;BME280_temperature;BME280_humidity;BME280_pressure;Samples;Min_cycle;Max_cycle;Signal;HPM_P1;HPM_P2
2024/04/17 00:08:34;;;;;;;1.90;0.20;;;;;;;;;;5386950;26;20711;-61
2024/04/17 00:11:03;;;;;;;0.30;0.30;;;;;;;;;;5370468;26;20249;-61
2024/04/17 00:13:33;;;;;;;1.17;0.20;;;;;;;;;;5370125;26;20257;-61
2024/04/17 00:16:00;;;;;;;0.10;0.10;;;;;;;;;;5370109;26;20255;-61
2024/04/17 00:46:04;;;;;;;0.10;0.10;;;;;;;;;;5385872;26;20342;-61
2024/04/17 00:48:30;;;;;;;0.00;0.00;;;;;;;;;;5380544;26;20234;-61
2024/04/17 00:50:59;;;;;;;0.00;0.00;;;;;;;;;;5372800;26;20722;-61
2024/04/17 00:53:26;;;;;;;0.10;0.10;;;;;;;;;;5371423;26;20220;-61
2024/04/17 00:55:55;;;;;;;0.97;0.00;;;;;;;;;;5371119;26;20234;-61
2024/04/17 00:58:21;;;;;;;0.00;0.00;;;;;;;;;;5384640;26;20234;-61
2024/04/17 01:00:50;;;;;;;0.00;0.00;;;;;;;;;;5372965;26;20238;-61
2024/04/17 01:03:19;;;;;;;0.10;0.10;;;;;;;;;;5371395;26;20234;-61
2024/04/17 01:05:48;;;;;;;0.30;0.10;;;;;;;;;;5372497;26;20237;-62
2024/04/17 01:08:15;;;;;;;0.07;0.07;;;;;;;;;;5372006;26;20761;-61
2024/04/17 01:10:43;;;;;;;0.33;0.20;;;;;;;;;;5389736;26;20233;-61
2024/04/17 01:13:10;;;;;;;0.10;0.10;;;;;;;;;;5406634;26;20221;-62
2024/04/17 01:15:39;;;;;;;0.00;0.00;;;;;;;;;;5372399;26;20242;-62
2024/04/17 01:18:07;;;;;;;0.00;0.00;;;;;;;;;;5372350;26;20292;-61
2024/04/17 01:20:38;;;;;;;0.93;0.20;;;;;;;;;;5370949;26;20244;-61
2024/04/17 01:23:04;;;;;;;0.23;0.23;;;;;;;;;;5391256;26;20233;-61
2024/04/17 01:25:36;;;;;;;0.10;0.10;;;;;;;;;;5370414;26;20339;-62
2024/04/17 01:28:04;;;;;;;0.10;0.10;;;;;;;;;;5372116;26;20663;-61
2024/04/17 01:30:33;;;;;;;0.73;0.20;;;;;;;;;;5371537;26;20220;-61
2024/04/17 01:33:00;;;;;;;0.20;0.20;;;;;;;;;;5376073;26;20360;-61
2024/04/17 01:35:29;;;;;;;2.10;0.40;;;;;;;;;;5389607;26;20332;-61
2024/04/17 01:37:55;;;;;;;0.20;0.20;;;;;;;;;;5407359;26;20732;-62
2024/04/17 01:40:24;;;;;;;0.47;0.33;;;;;;;;;;5385082;26;20281;-62
2024/04/17 01:42:53;;;;;;;0.20;0.20;;;;;;;;;;5371149;26;20236;-61
2024/04/17 01:45:22;;;;;;;0.20;0.20;;;;;;;;;;5370546;26;20277;-61
2024/04/17 01:47:48;;;;;;;0.17;0.17;;;;;;;;;;5387034;26;20816;-62
2024/04/17 01:50:28;;;;;;;0.40;0.40;;;;;;;;;;5397430;26;20631;-61
2024/04/17 01:52:54;;;;;;;0.40;0.40;;;;;;;;;;5407343;26;20223;-61
2024/04/17 01:55:23;;;;;;;0.63;0.27;;;;;;;;;;5375945;26;20235;-62
2024/04/17 01:57:49;;;;;;;0.20;0.20;;;;;;;;;;5354222;26;20294;-61
2024/04/17 02:00:21;;;;;;;0.30;0.30;;;;;;;;;;5391784;26;20243;-61
2024/04/17 02:02:47;;;;;;;0.20;0.20;;;;;;;;;;5407187;26;20225;-60
2024/04/17 02:05:16;;;;;;;0.17;0.10;;;;;;;;;;5378601;26;20280;-61
2024/04/17 02:07:42;;;;;;;0.77;0.20;;;;;;;;;;5371684;26;20238;-61
2024/04/17 02:10:11;;;;;;;0.20;0.20;;;;;;;;;;5368727;26;20242;-61
2024/04/17 02:12:37;;;;;;;0.20;0.20;;;;;;;;;;5388364;26;20273;-61
2024/04/17 02:15:07;;;;;;;0.83;0.20;;;;;;;;;;5380502;26;20241;-62
2024/04/17 02:17:35;;;;;;;0.30;0.30;;;;;;;;;;5371544;26;20277;-61
2024/04/17 02:20:07;;;;;;;0.20;0.20;;;;;;;;;;5482444;21;20258;-57
2024/04/17 02:22:35;;;;;;;0.20;0.20;;;;;;;;;;5486039;26;20617;-57
2024/04/17 02:25:03;;;;;;;0.30;0.30;;;;;;;;;;5476490;26;20722;-57
2024/04/17 02:27:32;;;;;;;0.20;0.20;;;;;;;;;;5488545;26;20344;-57
2024/04/17 02:29:58;;;;;;;0.10;0.10;;;;;;;;;;5487952;26;20598;-58
2024/04/17 02:32:27;;;;;;;0.10;0.10;;;;;;;;;;5488524;26;20314;-57
2024/04/17 02:34:56;;;;;;;0.50;0.20;;;;;;;;;;5478680;26;20725;-57
2024/04/17 02:37:25;;;;;;;0.50;0.10;;;;;;;;;;5480538;26;20226;-57
2024/04/17 02:39:51;;;;;;;0.10;0.10;;;;;;;;;;5487892;26;20226;-57
2024/04/17 02:42:20;;;;;;;0.60;0.30;;;;;;;;;;5488331;26;20214;-57
2024/04/17 02:44:46;;;;;;;0.50;0.20;;;;;;;;;;5487358;26;20272;-57
2024/04/17 02:47:15;;;;;;;0.10;0.10;;;;;;;;;;5486470;26;20273;-57
2024/04/17 02:49:41;;;;;;;0.30;0.30;;;;;;;;;;5458851;26;20625;-57
2024/04/17 02:52:13;;;;;;;0.30;0.27;;;;;;;;;;5498225;26;20780;-57
2024/04/17 02:54:39;;;;;;;0.20;0.20;;;;;;;;;;5478988;26;20231;-57
2024/04/17 02:57:08;;;;;;;0.17;0.17;;;;;;;;;;5493582;26;20238;-57
2024/04/17 02:59:34;;;;;;;0.20;0.20;;;;;;;;;;5470365;26;20237;-57
2024/04/17 03:02:03;;;;;;;0.23;0.17;;;;;;;;;;5488084;26;20261;-57
2024/04/17 03:04:29;;;;;;;0.50;0.27;;;;;;;;;;5486053;26;20246;-57
2024/04/17 03:06:58;;;;;;;0.17;0.17;;;;;;;;;;5487567;26;20223;-57
2024/04/17 03:09:27;;;;;;;0.53;0.37;;;;;;;;;;5486049;26;20578;-57
2024/04/17 03:11:56;;;;;;;0.20;0.20;;;;;;;;;;5485934;26;20235;-57
2024/04/17 03:14:22;;;;;;;0.07;0.07;;;;;;;;;;5487217;26;20278;-57
2024/04/17 03:17:10;;;;;;;0.10;0.10;;;;;;;;;;5465681;26;20233;-57
2024/04/17 03:19:36;;;;;;;0.13;0.13;;;;;;;;;;5487312;26;20617;-57
2024/04/17 03:22:05;;;;;;;0.10;0.10;;;;;;;;;;5499915;26;20359;-57
2024/04/17 03:24:34;;;;;;;0.10;0.10;;;;;;;;;;5472086;26;20239;-57
2024/04/17 03:27:03;;;;;;;2.33;0.10;;;;;;;;;;5487719;26;20223;-57
2024/04/17 03:29:29;;;;;;;0.10;0.10;;;;;;;;;;5487209;26;20281;-57
2024/04/17 03:31:58;;;;;;;0.10;0.10;;;;;;;;;;5487860;26;20222;-57
2024/04/17 03:34:24;;;;;;;0.07;0.07;;;;;;;;;;5482877;26;20746;-57
2024/04/17 03:36:53;;;;;;;0.10;0.10;;;;;;;;;;5487194;26;20230;-57
2024/04/17 03:39:22;;;;;;;0.10;0.10;;;;;;;;;;5486982;26;20340;-57
2024/04/17 03:41:53;;;;;;;0.10;0.10;;;;;;;;;;5485291;26;20333;-57
2024/04/17 03:44:22;;;;;;;0.00;0.00;;;;;;;;;;5483391;26;20231;-57
2024/04/17 03:46:51;;;;;;;0.00;0.00;;;;;;;;;;5486634;26;20235;-57
2024/04/17 03:49:23;;;;;;;0.10;0.10;;;;;;;;;;5497436;25;20345;-57
2024/04/17 03:51:49;;;;;;;0.10;0.10;;;;;;;;;;5498370;26;20304;-57
2024/04/17 03:54:18;;;;;;;0.60;0.00;;;;;;;;;;5494502;26;20238;-57
2024/04/17 03:56:45;;;;;;;0.00;0.00;;;;;;;;;;5484477;26;20227;-56
2024/04/17 03:59:17;;;;;;;0.00;0.00;;;;;;;;;;5497890;25;20286;-56
2024/04/17 04:01:43;;;;;;;0.10;0.10;;;;;;;;;;5470393;26;20264;-57
2024/04/17 04:04:15;;;;;;;0.10;0.10;;;;;;;;;;5486340;26;20235;-56
2024/04/17 04:06:41;;;;;;;0.10;0.10;;;;;;;;;;5486900;26;20280;-57
2024/04/17 04:09:10;;;;;;;0.10;0.10;;;;;;;;;;5485082;26;20247;-57
2024/04/17 04:11:36;;;;;;;0.20;0.20;;;;;;;;;;5484917;26;20734;-57
2024/04/17 04:14:05;;;;;;;2.37;0.20;;;;;;;;;;5478894;26;20330;-57
2024/04/17 04:16:34;;;;;;;0.20;0.20;;;;;;;;;;5480696;26;20227;-57
2024/04/17 04:19:03;;;;;;;1.70;0.10;;;;;;;;;;5483376;26;20241;-57
2024/04/17 04:21:29;;;;;;;0.20;0.20;;;;;;;;;;5486608;26;20236;-56
2024/04/17 04:23:58;;;;;;;0.10;0.10;;;;;;;;;;5500922;26;20573;-57
2024/04/17 04:26:25;;;;;;;0.10;0.10;;;;;;;;;;5486490;26;20236;-56
2024/04/17 04:28:54;;;;;;;0.10;0.10;;;;;;;;;;5490100;25;20239;-57
2024/04/17 04:31:20;;;;;;;0.20;0.20;;;;;;;;;;5496793;26;20240;-57
2024/04/17 04:33:51;;;;;;;0.10;0.10;;;;;;;;;;5487915;26;20351;-57
2024/04/17 04:36:18;;;;;;;0.30;0.30;;;;;;;;;;5474321;26;20263;-57
2024/04/17 04:38:47;;;;;;;1.07;0.20;;;;;;;;;;5482661;26;20314;-56
2024/04/17 04:41:13;;;;;;;0.23;0.23;;;;;;;;;;5484098;26;20243;-57
2024/04/17 04:43:42;;;;;;;0.53;0.53;;;;;;;;;;5479712;26;20240;-57
2024/04/17 04:46:08;;;;;;;0.40;0.40;;;;;;;;;;5491753;26;20262;-56
2024/04/17 04:48:37;;;;;;;0.20;0.20;;;;;;;;;;5470600;26;20243;-57
2024/04/17 04:51:06;;;;;;;0.20;0.20;;;;;;;;;;5485720;26;20333;-57
2024/04/17 04:53:35;;;;;;;0.20;0.20;;;;;;;;;;5483577;26;20231;-57
2024/04/17 04:56:02;;;;;;;0.20;0.20;;;;;;;;;;5482528;26;20230;-57
2024/04/17 04:58:31;;;;;;;0.20;0.20;;;;;;;;;;5484295;26;20231;-57
2024/04/17 05:00:58;;;;;;;1.13;0.20;;;;;;;;;;5485374;26;20227;-57
2024/04/17 05:03:27;;;;;;;2.93;0.73;;;;;;;;;;5484060;26;20227;-57
2024/04/17 05:05:53;;;;;;;0.30;0.30;;;;;;;;;;5485685;26;20280;-57
2024/04/17 05:08:24;;;;;;;0.20;0.20;;;;;;;;;;5483181;26;20310;-57
2024/04/17 05:10:51;;;;;;;0.40;0.40;;;;;;;;;;5485482;26;20278;-57
2024/04/17 05:13:19;;;;;;;0.60;0.60;;;;;;;;;;5485113;26;20266;-57
2024/04/17 05:15:46;;;;;;;1.90;0.60;;;;;;;;;;5476385;26;20255;-57
2024/04/17 05:18:15;;;;;;;0.53;0.53;;;;;;;;;;5488500;26;20278;-57
2024/04/17 05:20:41;;;;;;;0.30;0.30;;;;;;;;;;5484820;26;20230;-58
2024/04/17 05:23:10;;;;;;;0.60;0.30;;;;;;;;;;5481716;26;20745;-56
2024/04/17 05:25:40;;;;;;;0.40;0.40;;;;;;;;;;5483790;26;20269;-57
2024/04/17 05:28:09;;;;;;;0.40;0.40;;;;;;;;;;5488876;26;20278;-57
2024/04/17 05:30:35;;;;;;;0.50;0.20;;;;;;;;;;5488086;26;20278;-57
2024/04/17 05:33:06;;;;;;;0.20;0.20;;;;;;;;;;5489060;26;20269;-57
2024/04/17 05:35:32;;;;;;;0.50;0.50;;;;;;;;;;5493329;26;20251;-58
2024/04/17 05:38:04;;;;;;;0.80;0.80;;;;;;;;;;5488742;26;20231;-57
2024/04/17 05:40:30;;;;;;;0.60;0.60;;;;;;;;;;5488270;26;20720;-56
2024/04/17 05:43:03;;;;;;;0.70;0.70;;;;;;;;;;5488629;26;20582;-57
2024/04/17 05:45:30;;;;;;;0.20;0.20;;;;;;;;;;5485705;26;20240;-57
2024/04/17 05:47:59;;;;;;;0.33;0.30;;;;;;;;;;5490114;26;20238;-57
2024/04/17 05:50:25;;;;;;;0.30;0.10;;;;;;;;;;5487918;26;20234;-57
2024/04/17 05:52:54;;;;;;;0.20;0.20;;;;;;;;;;5487889;26;20231;-57
2024/04/17 05:55:20;;;;;;;0.10;0.10;;;;;;;;;;5488530;26;20234;-56
2024/04/17 05:57:49;;;;;;;0.93;0.40;;;;;;;;;;5488575;26;20744;-57
2024/04/17 06:00:20;;;;;;;0.30;0.10;;;;;;;;;;5487961;26;20280;-57
2024/04/17 06:02:49;;;;;;;0.20;0.10;;;;;;;;;;5500322;26;20227;-57
2024/04/17 06:05:16;;;;;;;0.50;0.27;;;;;;;;;;5469426;26;20239;-57
2024/04/17 06:07:45;;;;;;;0.97;0.40;;;;;;;;;;5500319;26;20232;-57
2024/04/17 06:10:11;;;;;;;1.33;0.70;;;;;;;;;;5474707;26;20290;-57
2024/04/17 06:12:40;;;;;;;0.73;0.73;;;;;;;;;;5487056;26;20227;-57
2024/04/17 06:15:06;;;;;;;1.03;0.70;;;;;;;;;;5486723;26;20749;-57
2024/04/17 06:17:38;;;;;;;0.83;0.60;;;;;;;;;;5488313;26;20346;-57
2024/04/17 06:20:05;;;;;;;0.20;0.20;;;;;;;;;;5484858;26;20235;-57
2024/04/17 06:22:34;;;;;;;0.20;0.20;;;;;;;;;;5486952;26;20235;-57
2024/04/17 06:25:00;;;;;;;0.10;0.10;;;;;;;;;;5477474;26;20226;-57
2024/04/17 06:27:29;;;;;;;0.10;0.10;;;;;;;;;;5487652;26;20277;-57
2024/04/17 06:29:55;;;;;;;0.10;0.10;;;;;;;;;;5487324;26;20231;-57
2024/04/17 06:32:24;;;;;;;2.77;0.10;;;;;;;;;;5488253;26;20342;-57
2024/04/17 06:34:53;;;;;;;0.10;0.10;;;;;;;;;;5488049;26;21044;-57
2024/04/17 06:37:22;;;;;;;0.10;0.10;;;;;;;;;;5487914;26;20837;-57
2024/04/17 06:39:48;;;;;;;0.20;0.20;;;;;;;;;;5480110;26;20250;-57
2024/04/17 06:42:17;;;;;;;0.10;0.10;;;;;;;;;;5487946;26;20727;-57
2024/04/17 06:44:43;;;;;;;0.43;0.10;;;;;;;;;;5487806;26;20231;-56
2024/04/17 06:47:12;;;;;;;0.20;0.20;;;;;;;;;;5486728;26;20267;-56
2024/04/17 06:49:39;;;;;;;0.40;0.10;;;;;;;;;;5486780;26;20278;-56
2024/04/17 06:52:11;;;;;;;0.20;0.20;;;;;;;;;;5487939;26;20235;-56
2024/04/17 06:54:37;;;;;;;0.67;0.67;;;;;;;;;;5486515;26;20686;-57
2024/04/17 06:57:06;;;;;;;0.37;0.37;;;;;;;;;;5485492;26;20231;-57
2024/04/17 06:59:32;;;;;;;0.30;0.30;;;;;;;;;;5486999;26;20254;-56
2024/04/17 07:02:01;;;;;;;0.20;0.20;;;;;;;;;;5487860;26;20263;-57
2024/04/17 07:04:27;;;;;;;0.57;0.20;;;;;;;;;;5487510;26;20231;-57
2024/04/17 07:06:56;;;;;;;0.20;0.20;;;;;;;;;;5487695;26;20246;-57
2024/04/17 07:09:25;;;;;;;0.00;0.00;;;;;;;;;;5484563;26;20285;-57
2024/04/17 07:11:54;;;;;;;0.10;0.10;;;;;;;;;;5485963;26;20703;-56
2024/04/17 07:14:20;;;;;;;0.20;0.20;;;;;;;;;;5483678;26;20229;-57
2024/04/17 07:16:49;;;;;;;0.13;0.13;;;;;;;;;;5486905;26;20225;-56
2024/04/17 07:19:15;;;;;;;0.30;0.30;;;;;;;;;;5486495;26;20227;-57
2024/04/17 07:21:44;;;;;;;0.17;0.17;;;;;;;;;;5485905;26;20730;-57
2024/04/17 07:24:10;;;;;;;0.10;0.10;;;;;;;;;;5486589;26;20269;-57
2024/04/17 07:26:42;;;;;;;0.00;0.00;;;;;;;;;;5487614;26;20243;-57
2024/04/17 07:29:08;;;;;;;0.10;0.10;;;;;;;;;;5486924;26;20272;-56
2024/04/17 07:31:37;;;;;;;0.10;0.10;;;;;;;;;;5500177;26;20271;-57
2024/04/17 07:34:04;;;;;;;0.10;0.10;;;;;;;;;;5479408;26;20868;-57
2024/04/17 07:36:33;;;;;;;0.10;0.10;;;;;;;;;;5461975;26;20238;-57
2024/04/17 07:38:59;;;;;;;0.40;0.40;;;;;;;;;;5468301;26;20235;-57
2024/04/17 07:41:28;;;;;;;0.20;0.20;;;;;;;;;;5476787;26;20236;-57
2024/04/17 07:43:59;;;;;;;0.30;0.30;;;;;;;;;;5488120;26;20248;-57
2024/04/17 07:46:27;;;;;;;0.20;0.20;;;;;;;;;;5459604;26;20289;-56
2024/04/17 07:48:54;;;;;;;0.10;0.10;;;;;;;;;;5489300;25;20237;-57
2024/04/17 07:51:23;;;;;;;0.40;0.40;;;;;;;;;;5477023;26;20242;-57
2024/04/17 07:53:49;;;;;;;0.80;0.60;;;;;;;;;;5486219;26;20234;-57
2024/04/17 07:56:18;;;;;;;0.30;0.30;;;;;;;;;;5506495;26;20227;-57
2024/04/17 07:58:44;;;;;;;0.20;0.20;;;;;;;;;;5474587;26;20645;-56
2024/04/17 08:01:16;;;;;;;0.27;0.27;;;;;;;;;;5483597;26;20230;-57
2024/04/17 08:03:43;;;;;;;1.33;0.20;;;;;;;;;;5489315;26;20272;-57
2024/04/17 08:06:12;;;;;;;0.60;0.20;;;;;;;;;;5475547;26;20369;-61
2024/04/17 08:08:40;;;;;;;0.80;0.27;;;;;;;;;;5478215;26;20298;-59
2024/04/17 08:11:09;;;;;;;0.20;0.20;;;;;;;;;;5484436;26;20227;-59
2024/04/17 08:13:37;;;;;;;0.30;0.20;;;;;;;;;;5486065;26;20792;-58
2024/04/17 08:16:06;;;;;;;0.10;0.10;;;;;;;;;;5485872;26;20347;-58
2024/04/17 08:18:35;;;;;;;0.10;0.10;;;;;;;;;;5478376;26;20235;-59
2024/04/17 08:21:04;;;;;;;1.03;0.10;;;;;;;;;;5486038;26;20343;-59
2024/04/17 08:23:31;;;;;;;2.10;0.20;;;;;;;;;;5480532;26;20236;-59
2024/04/17 08:26:00;;;;;;;0.30;0.23;;;;;;;;;;5485066;26;20278;-60
2024/04/17 08:28:26;;;;;;;0.20;0.20;;;;;;;;;;5485190;26;20734;-58
2024/04/17 08:30:55;;;;;;;0.10;0.10;;;;;;;;;;5485935;26;20228;-57
2024/04/17 08:33:21;;;;;;;0.10;0.10;;;;;;;;;;5486139;26;20230;-55
2024/04/17 08:35:53;;;;;;;0.20;0.20;;;;;;;;;;5485216;26;20234;-57
2024/04/17 08:38:19;;;;;;;0.20;0.20;;;;;;;;;;5485935;26;20614;-57
2024/04/17 08:40:48;;;;;;;0.20;0.20;;;;;;;;;;5483499;26;20242;-57
2024/04/17 08:43:22;;;;;;;0.10;0.10;;;;;;;;;;5481038;26;20771;-56
2024/04/17 08:45:51;;;;;;;0.10;0.10;;;;;;;;;;5454997;26;20598;-57
2024/04/17 08:48:18;;;;;;;1.60;0.30;;;;;;;;;;5485654;26;20231;-57
2024/04/17 08:50:47;;;;;;;0.20;0.20;;;;;;;;;;5493013;20;20429;-65
2024/04/17 08:53:17;;;;;;;0.23;0.20;;;;;;;;;;5410633;26;20275;-64
2024/04/17 08:55:47;;;;;;;0.30;0.10;;;;;;;;;;5415415;26;20225;-64
2024/04/17 08:58:13;;;;;;;0.37;0.37;;;;;;;;;;5404771;26;20226;-65
2024/04/17 09:00:42;;;;;;;0.10;0.10;;;;;;;;;;5422970;26;20239;-65
2024/04/17 09:03:09;;;;;;;0.77;0.17;;;;;;;;;;5404754;26;20237;-65
2024/04/17 09:05:38;;;;;;;0.17;0.17;;;;;;;;;;5417610;26;20282;-65
2024/04/17 09:08:05;;;;;;;2.20;0.10;;;;;;;;;;5418975;26;20233;-65
2024/04/17 09:10:37;;;;;;;1.03;0.23;;;;;;;;;;5416174;26;20283;-66
2024/04/17 09:13:06;;;;;;;1.30;0.20;;;;;;;;;;5397072;26;20319;-61
2024/04/17 09:15:35;;;;;;;0.17;0.17;;;;;;;;;;5395124;26;20340;-64
2024/04/17 09:18:08;;;;;;;0.53;0.10;;;;;;;;;;5401099;26;20282;-61
2024/04/17 09:20:37;;;;;;;0.93;0.10;;;;;;;;;;5412334;26;20250;-61
2024/04/17 09:23:08;;;;;;;0.47;0.20;;;;;;;;;;5403486;26;20701;-61
2024/04/17 09:25:40;;;;;;;0.10;0.10;;;;;;;;;;5415495;26;20635;-61
2024/04/17 09:28:11;;;;;;;0.10;0.10;;;;;;;;;;5417089;26;20233;-61
2024/04/17 09:30:40;;;;;;;0.27;0.27;;;;;;;;;;5416883;26;20779;-61
2024/04/17 09:33:10;;;;;;;0.20;0.20;;;;;;;;;;5417367;26;20262;-61
2024/04/17 09:35:39;;;;;;;0.40;0.20;;;;;;;;;;5418554;26;20235;-61
2024/04/17 09:38:09;;;;;;;0.20;0.10;;;;;;;;;;5415566;26;20673;-61
2024/04/17 09:40:41;;;;;;;1.00;0.23;;;;;;;;;;5416716;26;20233;-61
2024/04/17 09:43:10;;;;;;;0.33;0.23;;;;;;;;;;5417435;26;20335;-64
2024/04/17 09:45:40;;;;;;;0.40;0.30;;;;;;;;;;5430841;26;20736;-65
2024/04/17 09:48:10;;;;;;;2.33;0.10;;;;;;;;;;5453374;26;20260;-64
2024/04/17 09:50:40;;;;;;;2.53;0.20;;;;;;;;;;5452398;26;20270;-63
2024/04/17 09:53:07;;;;;;;0.23;0.10;;;;;;;;;;5453029;26;20259;-63
2024/04/17 09:55:36;;;;;;;0.20;0.20;;;;;;;;;;5427973;26;20251;-63
2024/04/17 09:58:09;;;;;;;0.30;0.30;;;;;;;;;;5417156;26;20225;-63
2024/04/17 10:00:38;;;;;;;1.93;0.20;;;;;;;;;;5416527;26;20231;-63
2024/04/17 10:03:06;;;;;;;0.10;0.10;;;;;;;;;;5416104;26;20225;-62
2024/04/17 10:05:35;;;;;;;0.10;0.03;;;;;;;;;;5417040;26;20233;-62
2024/04/17 10:08:05;;;;;;;0.70;0.20;;;;;;;;;;5417429;26;20223;-62
2024/04/17 10:10:35;;;;;;;0.20;0.20;;;;;;;;;;5416341;26;20270;-63
2024/04/17 10:13:01;;;;;;;0.00;0.00;;;;;;;;;;5414129;26;20219;-67
2024/04/17 10:15:33;;;;;;;0.83;0.10;;;;;;;;;;5426382;26;20748;-66
2024/04/17 10:17:59;;;;;;;0.07;0.07;;;;;;;;;;5452693;26;20220;-67
2024/04/17 10:20:28;;;;;;;0.10;0.10;;;;;;;;;;5452357;26;20212;-66
2024/04/17 10:23:07;;;;;;;0.00;0.00;;;;;;;;;;5452676;26;20218;-65
2024/04/17 10:25:33;;;;;;;0.30;0.00;;;;;;;;;;5439035;26;20634;-66
2024/04/17 10:28:09;;;;;;;0.10;0.10;;;;;;;;;;5416577;26;20236;-65
2024/04/17 10:30:38;;;;;;;0.40;0.10;;;;;;;;;;5415882;26;20615;-64
2024/04/17 10:33:11;;;;;;;0.10;0.10;;;;;;;;;;5416755;26;20221;-66
2024/04/17 10:35:42;;;;;;;0.10;0.10;;;;;;;;;;5416767;26;20275;-64
2024/04/17 10:38:11;;;;;;;0.10;0.10;;;;;;;;;;5416663;26;20229;-65
2024/04/17 10:40:37;;;;;;;0.00;0.00;;;;;;;;;;5415981;26;20235;-66
2024/04/17 10:43:11;;;;;;;0.00;0.00;;;;;;;;;;5416575;26;20226;-67
2024/04/17 10:45:45;;;;;;;0.67;0.10;;;;;;;;;;5416899;26;20279;-66
2024/04/17 10:48:22;;;;;;;0.10;0.10;;;;;;;;;;5414946;26;20237;-60
2024/04/17 10:50:50;;;;;;;0.00;0.00;;;;;;;;;;5415541;26;20227;-60
2024/04/17 10:53:18;;;;;;;1.07;0.00;;;;;;;;;;5416330;26;20303;-59
2024/04/17 10:55:45;;;;;;;0.87;0.00;;;;;;;;;;5416832;26;20279;-60
2024/04/17 10:58:15;;;;;;;0.00;0.00;;;;;;;;;;5411318;26;20287;-60
2024/04/17 11:00:44;;;;;;;0.00;0.00;;;;;;;;;;5417365;26;20278;-62
2024/04/17 11:03:14;;;;;;;0.00;0.00;;;;;;;;;;5423488;26;20238;-62
2024/04/17 11:05:40;;;;;;;0.00;0.00;;;;;;;;;;5382245;26;20222;-62
2024/04/17 11:08:12;;;;;;;0.00;0.00;;;;;;;;;;5411377;26;20577;-63
2024/04/17 11:10:38;;;;;;;0.00;0.00;;;;;;;;;;5416501;26;20276;-62
2024/04/17 11:13:16;;;;;;;0.00;0.00;;;;;;;;;;5413855;26;20333;-61
2024/04/17 11:15:45;;;;;;;0.00;0.00;;;;;;;;;;5415039;26;20235;-62
2024/04/17 11:18:14;;;;;;;0.10;0.00;;;;;;;;;;5395122;26;20236;-61
2024/04/17 11:20:40;;;;;;;1.13;0.10;;;;;;;;;;5415357;26;20600;-62
2024/04/17 11:23:12;;;;;;;0.00;0.00;;;;;;;;;;5415935;26;20412;-61
2024/04/17 11:25:41;;;;;;;0.00;0.00;;;;;;;;;;5409255;26;20239;-61
2024/04/17 11:28:13;;;;;;;0.00;0.00;;;;;;;;;;5407905;26;20240;-61
2024/04/17 11:30:48;;;;;;;0.00;0.00;;;;;;;;;;5415328;26;20229;-60
2024/04/17 11:33:18;;;;;;;0.20;0.10;;;;;;;;;;5411869;26;20316;-64
2024/04/17 11:35:44;;;;;;;0.80;0.00;;;;;;;;;;5414411;26;20234;-62
2024/04/17 11:38:16;;;;;;;0.53;0.03;;;;;;;;;;5429931;26;20349;-62
2024/04/17 11:40:43;;;;;;;0.00;0.00;;;;;;;;;;5417919;26;20573;-62
2024/04/17 11:43:17;;;;;;;0.20;0.00;;;;;;;;;;5412885;26;20304;-62
2024/04/17 11:45:43;;;;;;;0.00;0.00;;;;;;;;;;5413059;26;20275;-63
2024/04/17 11:48:15;;;;;;;0.00;0.00;;;;;;;;;;5415333;26;20241;-65
2024/04/17 11:50:41;;;;;;;0.10;0.10;;;;;;;;;;5414966;26;20624;-65
2024/04/17 11:53:10;;;;;;;0.00;0.00;;;;;;;;;;5415470;26;20274;-64
2024/04/17 11:55:37;;;;;;;0.00;0.00;;;;;;;;;;5415076;26;20282;-64
2024/04/17 11:58:09;;;;;;;0.10;0.10;;;;;;;;;;5429402;26;20273;-64
2024/04/17 12:00:35;;;;;;;0.10;0.10;;;;;;;;;;5413748;26;20737;-63
2024/04/17 12:03:07;;;;;;;0.50;0.00;;;;;;;;;;5414821;26;20268;-63
2024/04/17 12:05:36;;;;;;;0.20;0.00;;;;;;;;;;5415110;26;20269;-63
2024/04/17 12:08:06;;;;;;;0.00;0.00;;;;;;;;;;5415303;26;20249;-64
2024/04/17 12:10:33;;;;;;;0.00;0.00;;;;;;;;;;5411924;26;20233;-63
2024/04/17 12:13:04;;;;;;;0.03;0.03;;;;;;;;;;5409767;26;20291;-65
2024/04/17 12:15:30;;;;;;;0.00;0.00;;;;;;;;;;5415056;26;20242;-62
2024/04/17 12:17:59;;;;;;;0.00;0.00;;;;;;;;;;5428656;26;20239;-63
2024/04/17 12:20:26;;;;;;;0.10;0.10;;;;;;;;;;5414300;26;20231;-62
2024/04/17 12:22:57;;;;;;;0.93;0.43;;;;;;;;;;5415340;26;20240;-62
2024/04/17 12:28:11;;;;;;;0.00;0.00;;;;;;;;;;5427757;26;20332;-64
2024/04/17 12:30:40;;;;;;;0.07;0.07;;;;;;;;;;5422568;26;20233;-64
2024/04/17 12:33:09;;;;;;;0.10;0.10;;;;;;;;;;5417496;26;20224;-65
2024/04/17 12:35:38;;;;;;;0.10;0.10;;;;;;;;;;5416961;26;20229;-63
2024/04/17 12:38:10;;;;;;;0.50;0.10;;;;;;;;;;5389101;26;20225;-75
2024/04/17 12:40:39;;;;;;;1.07;0.00;;;;;;;;;;5412686;26;20295;-61
2024/04/17 12:43:08;;;;;;;0.00;0.00;;;;;;;;;;5389040;26;20276;-61
2024/04/17 12:45:35;;;;;;;0.00;0.00;;;;;;;;;;5397754;26;20237;-61
2024/04/17 12:48:05;;;;;;;0.13;0.07;;;;;;;;;;5399452;26;20338;-61
2024/04/17 12:50:34;;;;;;;0.10;0.07;;;;;;;;;;5399870;26;20234;-61
2024/04/17 12:53:04;;;;;;;0.67;0.00;;;;;;;;;;5408283;26;20228;-61
2024/04/17 12:55:36;;;;;;;0.07;0.00;;;;;;;;;;5406826;26;20242;-61
2024/04/17 12:58:08;;;;;;;0.00;0.00;;;;;;;;;;5402515;26;20598;-61
2024/04/17 13:00:37;;;;;;;0.10;0.10;;;;;;;;;;5416791;26;20238;-60
2024/04/17 13:03:09;;;;;;;0.10;0.10;;;;;;;;;;5388528;26;20744;-60
2024/04/17 13:05:35;;;;;;;0.00;0.00;;;;;;;;;;5397559;26;20277;-60
2024/04/17 13:08:06;;;;;;;0.60;0.20;;;;;;;;;;5383162;26;20238;-60
2024/04/17 13:10:35;;;;;;;0.10;0.10;;;;;;;;;;5380120;26;20603;-60
2024/04/17 13:13:04;;;;;;;0.73;0.73;;;;;;;;;;5388912;26;20920;-60
2024/04/17 13:15:30;;;;;;;0.20;0.20;;;;;;;;;;5415296;26;20271;-60
2024/04/17 13:17:59;;;;;;;1.20;0.30;;;;;;;;;;5417749;26;20576;-62
2024/04/17 13:20:25;;;;;;;0.30;0.20;;;;;;;;;;5403442;26;20227;-63
2024/04/17 13:22:54;;;;;;;0.30;0.30;;;;;;;;;;5410784;26;20238;-65
2024/04/17 13:25:20;;;;;;;0.77;0.30;;;;;;;;;;5410208;26;20620;-62
2024/04/17 13:27:52;;;;;;;0.43;0.43;;;;;;;;;;5411693;26;20333;-63
2024/04/17 13:30:18;;;;;;;0.67;0.67;;;;;;;;;;5398648;26;20790;-65
2024/04/17 13:32:47;;;;;;;0.87;0.87;;;;;;;;;;5417234;26;20569;-68
2024/04/17 13:35:13;;;;;;;0.80;0.80;;;;;;;;;;5412712;26;20817;-69
2024/04/17 13:37:42;;;;;;;1.07;1.07;;;;;;;;;;5415824;26;20244;-68
2024/04/17 13:40:09;;;;;;;0.53;0.20;;;;;;;;;;5402754;26;20280;-65
2024/04/17 13:42:38;;;;;;;0.50;0.50;;;;;;;;;;5416900;26;20236;-64
2024/04/17 13:45:10;;;;;;;2.53;0.47;;;;;;;;;;5416946;26;20231;-65
2024/04/17 13:47:36;;;;;;;0.87;0.50;;;;;;;;;;5409522;26;20278;-68
2024/04/17 13:50:07;;;;;;;0.80;0.67;;;;;;;;;;5429159;26;20825;-63
2024/04/17 13:52:33;;;;;;;0.40;0.40;;;;;;;;;;5416683;26;20356;-61
2024/04/17 13:55:02;;;;;;;0.77;0.47;;;;;;;;;;5416939;26;20277;-61
2024/04/17 13:57:28;;;;;;;0.80;0.60;;;;;;;;;;5417080;26;20229;-62
2024/04/17 13:59:57;;;;;;;1.67;0.63;;;;;;;;;;5419405;26;20307;-62
2024/04/17 14:02:26;;;;;;;0.47;0.47;;;;;;;;;;5406443;26;20284;-62
2024/04/17 14:04:55;;;;;;;0.50;0.50;;;;;;;;;;5428839;26;20235;-65
2024/04/17 14:07:21;;;;;;;0.50;0.50;;;;;;;;;;5392052;26;20240;-62
2024/04/17 14:09:53;;;;;;;0.40;0.40;;;;;;;;;;5415291;26;20285;-63
2024/04/17 14:12:20;;;;;;;0.40;0.40;;;;;;;;;;5385807;26;20252;-65
2024/04/17 14:14:48;;;;;;;1.00;0.40;;;;;;;;;;5412695;26;20243;-61
2024/04/17 14:17:15;;;;;;;0.40;0.40;;;;;;;;;;5381665;26;20267;-64
2024/04/17 14:19:46;;;;;;;2.20;2.00;;;;;;;;;;5400803;26;20620;-65
2024/04/17 14:22:12;;;;;;;0.50;0.50;;;;;;;;;;5416493;26;20244;-65
2024/04/17 14:24:41;;;;;;;0.10;0.10;;;;;;;;;;5416803;26;20235;-64
2024/04/17 14:27:08;;;;;;;0.17;0.17;;;;;;;;;;5381393;26;20282;-63
2024/04/17 14:29:37;;;;;;;0.20;0.20;;;;;;;;;;5400289;26;20294;-64
2024/04/17 14:32:03;;;;;;;0.23;0.23;;;;;;;;;;5382850;26;20314;-61
2024/04/17 14:34:33;;;;;;;0.40;0.20;;;;;;;;;;5397135;26;20298;-60
2024/04/17 14:37:01;;;;;;;2.67;0.20;;;;;;;;;;5427249;26;20267;-62
2024/04/17 14:39:31;;;;;;;1.17;0.10;;;;;;;;;;5417484;26;20225;-63
2024/04/17 14:41:57;;;;;;;0.23;0.23;;;;;;;;;;5416255;26;20232;-62
2024/04/17 14:44:27;;;;;;;0.10;0.10;;;;;;;;;;5416163;26;20310;-60
2024/04/17 14:46:53;;;;;;;0.10;0.10;;;;;;;;;;5415737;26;20234;-62
2024/04/17 14:49:22;;;;;;;0.20;0.20;;;;;;;;;;5419020;26;20279;-62
2024/04/17 14:51:48;;;;;;;0.30;0.20;;;;;;;;;;5415571;26;20275;-64
2024/04/17 14:54:20;;;;;;;0.53;0.13;;;;;;;;;;5416190;26;20290;-67
2024/04/17 14:56:46;;;;;;;0.40;0.20;;;;;;;;;;5401517;26;20232;-65
2024/04/17 14:59:15;;;;;;;0.50;0.17;;;;;;;;;;5415981;26;20278;-64
2024/04/17 15:01:42;;;;;;;1.00;0.30;;;;;;;;;;5457750;21;20251;-63
2024/04/17 15:04:11;;;;;;;0.10;0.10;;;;;;;;;;5441514;26;20232;-61
2024/04/17 15:06:37;;;;;;;0.23;0.10;;;;;;;;;;5407309;26;20233;-59
2024/04/17 15:09:06;;;;;;;0.23;0.10;;;;;;;;;;5437376;26;20747;-62
2024/04/17 15:11:37;;;;;;;1.10;0.20;;;;;;;;;;5453216;26;20226;-62
2024/04/17 15:14:06;;;;;;;1.50;0.20;;;;;;;;;;5487056;26;20269;-63
2024/04/17 15:16:33;;;;;;;0.63;0.20;;;;;;;;;;5487822;26;20261;-63
2024/04/17 15:19:02;;;;;;;0.20;0.20;;;;;;;;;;5487175;26;20307;-63
2024/04/17 15:21:31;;;;;;;0.50;0.20;;;;;;;;;;5497982;26;20235;-63
2024/04/17 15:24:00;;;;;;;0.67;0.30;;;;;;;;;;5497004;25;20272;-62
2024/04/17 15:26:26;;;;;;;0.43;0.20;;;;;;;;;;5506144;25;20285;-63
2024/04/17 15:28:58;;;;;;;0.37;0.20;;;;;;;;;;5513381;26;20277;-63